createdAt,value
2019-05-01T00:01:06.698Z,101290.87
2019-05-01T00:03:42.789Z,101287.84
2019-05-01T00:06:12.951Z,101280.86
2019-05-01T00:08:41.452Z,101273.88
2019-05-01T00:11:10.119Z,101272.11
2019-05-01T00:13:38.620Z,101271.69
2019-05-01T00:16:07.162Z,101274.70
2019-05-01T00:18:35.667Z,101272.51
2019-05-01T00:21:04.209Z,101272.97
2019-05-01T00:23:32.695Z,101271.64
2019-05-01T00:26:01.327Z,101265.96
2019-05-01T00:28:30.908Z,101264.68
2019-05-01T00:30:59.519Z,101236.29
2019-05-01T00:33:28.004Z,101265.12
2019-05-01T00:35:56.514Z,101257.27
2019-05-01T00:38:25.022Z,101255.95
2019-05-01T00:40:53.500Z,101257.73
2019-05-01T00:43:22.031Z,101257.70
2019-05-01T00:45:50.512Z,101259.44
2019-05-01T00:48:19.004Z,101252.51
2019-05-01T00:50:47.533Z,101257.27
2019-05-01T00:53:16.028Z,101254.23
2019-05-01T00:55:48.885Z,101254.20
2019-05-01T00:58:31.336Z,101248.53
2019-05-01T01:01:17.913Z,101256.36
2019-05-01T01:03:46.531Z,101246.77
2019-05-01T01:06:15.088Z,101234.58
2019-05-01T01:08:43.595Z,101242.81
2019-05-01T01:11:12.125Z,101240.19
2019-05-01T01:13:40.614Z,101239.31
2019-05-01T01:16:09.090Z,101238.89
2019-05-01T01:18:37.597Z,101238.00
2019-05-01T01:21:06.085Z,101237.53
2019-05-01T01:23:34.585Z,101233.60
2019-05-01T01:26:03.199Z,101234.03
2019-05-01T01:28:31.680Z,101234.02
2019-05-01T01:31:01.266Z,101232.25
2019-05-01T01:33:29.795Z,101233.09
2019-05-01T01:35:58.307Z,101233.08
2019-05-01T01:38:26.873Z,101226.97
2019-05-01T01:40:55.581Z,101222.16
2019-05-01T01:43:34.933Z,101223.02
2019-05-01T01:46:05.767Z,101218.64
2019-05-01T01:48:34.338Z,101219.03
2019-05-01T01:51:02.895Z,101225.96
2019-05-01T01:53:31.574Z,101213.30
2019-05-01T01:56:00.252Z,101216.77
2019-05-01T01:58:28.963Z,101218.45
2019-05-01T02:01:15.405Z,101214.52
2019-05-01T02:03:45.598Z,101214.00
2019-05-01T02:06:14.245Z,101207.43
2019-05-01T02:08:50.188Z,101205.67
2019-05-01T02:11:13.141Z,101206.05
2019-05-01T02:13:41.702Z,101201.69
2019-05-01T02:16:10.300Z,101196.42
2019-05-01T02:18:38.792Z,101195.05
2019-05-01T02:21:07.338Z,101194.16
2019-05-01T02:23:35.882Z,101191.95
2019-05-01T02:26:04.829Z,101192.33
2019-05-01T02:28:40.533Z,101187.53
2019-05-01T02:31:27.685Z,101191.84
2019-05-01T02:33:46.509Z,101188.80
2019-05-01T02:36:16.142Z,101184.00
2019-05-01T02:38:45.595Z,101185.70
2019-05-01T02:41:15.395Z,101186.98
2019-05-01T02:43:44.855Z,101181.71
2019-05-01T02:46:14.412Z,101180.81
2019-05-01T02:48:45.440Z,101185.56
2019-05-01T02:51:14.511Z,101186.36
2019-05-01T02:53:44.527Z,101178.92
2019-05-01T02:56:21.958Z,101179.30
2019-05-01T02:58:52.049Z,101183.14
2019-05-01T03:01:20.536Z,101177.00
2019-05-01T03:03:50.409Z,101180.44
2019-05-01T03:06:19.483Z,101170.39
2019-05-01T03:08:48.840Z,101172.49
2019-05-01T03:11:17.449Z,101173.30
2019-05-01T03:13:46.916Z,101171.92
2019-05-01T03:16:16.464Z,101167.91
2019-05-01T03:18:50.295Z,101173.48
2019-05-01T03:21:23.231Z,101174.27
2019-05-01T03:23:53.534Z,101178.03
2019-05-01T03:26:22.332Z,101175.38
2019-05-01T03:28:50.919Z,101176.14
2019-05-01T03:31:19.435Z,101177.87
2019-05-01T03:33:48.431Z,101167.83
2019-05-01T03:36:18.044Z,101163.88
2019-05-01T03:38:46.706Z,101167.27
2019-05-01T03:41:15.401Z,101176.33
2019-05-01T03:43:43.885Z,101172.35
2019-05-01T03:46:12.532Z,101174.41
2019-05-01T03:48:41.128Z,101172.16
2019-05-01T03:51:09.609Z,101174.27
2019-05-01T03:53:38.145Z,101171.63
2019-05-01T03:56:07.116Z,101175.53
2019-05-01T03:58:35.593Z,101178.61
2019-05-01T04:01:11.580Z,101181.64
2019-05-01T04:03:41.891Z,101170.85
2019-05-01T04:06:10.557Z,101182.98
2019-05-01T04:08:39.095Z,101181.69
2019-05-01T04:11:07.868Z,101183.41
2019-05-01T04:13:36.358Z,101182.98
2019-05-01T04:16:05.125Z,101178.69
2019-05-01T04:18:34.440Z,101177.86
2019-05-01T04:21:03.170Z,101170.94
2019-05-01T04:23:31.783Z,101169.24
2019-05-01T04:26:00.436Z,101174.84
2019-05-01T04:28:33.766Z,101176.14
2019-05-01T04:31:20.518Z,101172.23
2019-05-01T04:33:53.355Z,101179.17
2019-05-01T04:36:36.343Z,101172.20
2019-05-01T04:39:07.977Z,101178.22
2019-05-01T04:41:36.725Z,101179.05
2019-05-01T04:44:05.571Z,101181.12
2019-05-01T04:46:34.221Z,101178.91
2019-05-01T04:49:02.713Z,101182.73
2019-05-01T04:51:31.922Z,101174.45
2019-05-01T04:54:00.546Z,101182.64
2019-05-01T04:56:29.097Z,101182.63
2019-05-01T04:58:57.664Z,101181.33
2019-05-01T05:01:29.666Z,101188.26
2019-05-01T05:03:58.893Z,101179.56
2019-05-01T05:06:27.485Z,101188.17
2019-05-01T05:08:56.412Z,101184.70
2019-05-01T05:11:29.593Z,101189.91
2019-05-01T05:14:08.614Z,101181.64
2019-05-01T05:16:38.807Z,101187.27
2019-05-01T05:19:07.285Z,101188.13
2019-05-01T05:21:37.562Z,101186.48
2019-05-01T05:24:06.057Z,101187.45
2019-05-01T05:26:35.009Z,101197.97
2019-05-01T05:29:03.621Z,101195.89
2019-05-01T05:31:32.557Z,101197.67
2019-05-01T05:34:01.420Z,101192.51
2019-05-01T05:36:30.323Z,101192.52
2019-05-01T05:39:01.618Z,101192.98
2019-05-01T05:41:31.733Z,101192.98
2019-05-01T05:44:00.635Z,101192.20
2019-05-01T05:46:29.201Z,101189.25
2019-05-01T05:48:57.753Z,101180.20
2019-05-01T05:51:46.889Z,101182.87
2019-05-01T05:54:33.319Z,101173.81
2019-05-01T05:57:12.654Z,101176.84
2019-05-01T05:59:45.196Z,101183.78
2019-05-01T06:02:15.916Z,101188.98
2019-05-01T06:04:57.850Z,101193.31
2019-05-01T06:07:29.586Z,101192.44
2019-05-01T06:10:06.146Z,101192.84
2019-05-01T06:12:37.305Z,101196.81
2019-05-01T06:15:17.851Z,101196.42
2019-05-01T06:17:48.353Z,101200.33
2019-05-01T06:20:25.810Z,101194.70
2019-05-01T06:23:09.597Z,101198.63
2019-05-01T06:25:46.691Z,101202.10
2019-05-01T06:28:19.840Z,101193.91
2019-05-01T06:30:47.156Z,101195.25
2019-05-01T06:33:16.464Z,101194.81
2019-05-01T06:35:45.249Z,101196.11
2019-05-01T06:38:16.353Z,101193.12
2019-05-01T06:40:47.447Z,101194.85
2019-05-01T06:43:46.663Z,101194.85
2019-05-01T06:46:17.458Z,101190.52
2019-05-01T06:48:54.583Z,101197.89
2019-05-01T06:51:36.992Z,101194.06
2019-05-01T06:54:11.489Z,101195.48
2019-05-01T06:56:38.650Z,101192.16
2019-05-01T06:59:07.717Z,101188.80
2019-05-01T07:01:37.109Z,101195.88
2019-05-01T07:04:06.463Z,101193.02
2019-05-01T07:06:35.227Z,101189.24
2019-05-01T07:09:06.960Z,101193.34
2019-05-01T07:11:36.806Z,101187.48
2019-05-01T07:14:05.814Z,101193.29
2019-05-01T07:16:38.074Z,101193.45
2019-05-01T07:19:07.025Z,101190.55
2019-05-01T07:21:35.603Z,101191.52
2019-05-01T07:24:04.663Z,101194.22
2019-05-01T07:26:33.146Z,101189.43
2019-05-01T07:29:09.516Z,101187.28
2019-05-01T07:31:36.044Z,101189.89
2019-05-01T07:34:16.019Z,101196.44
2019-05-01T07:36:35.099Z,101192.13
2019-05-01T07:39:05.219Z,101189.59
2019-05-01T07:41:34.047Z,101189.20
2019-05-01T07:44:15.101Z,101189.72
2019-05-01T07:46:54.320Z,101184.09
2019-05-01T07:49:30.585Z,101189.39
2019-05-01T07:52:01.712Z,101183.78
2019-05-01T07:54:29.363Z,101182.10
2019-05-01T07:56:58.726Z,101184.30
2019-05-01T07:59:28.794Z,101173.45
2019-05-01T08:02:01.899Z,101176.96
2019-05-01T08:04:37.540Z,101176.96
2019-05-01T08:07:00.661Z,101180.90
2019-05-01T08:09:29.165Z,101179.59
2019-05-01T08:11:57.685Z,101182.63
2019-05-01T08:14:26.176Z,101182.19
2019-05-01T08:16:54.668Z,101179.16
2019-05-01T08:19:24.830Z,101182.67
2019-05-01T08:21:56.912Z,101182.72
2019-05-01T08:24:25.170Z,101183.19
2019-05-01T08:26:53.686Z,101181.47
2019-05-01T08:29:29.309Z,101186.77
2019-05-01T08:32:11.245Z,101181.56
2019-05-01T08:34:48.883Z,101174.16
2019-05-01T08:37:11.536Z,101183.31
2019-05-01T08:39:44.141Z,101182.51
2019-05-01T08:42:10.289Z,101176.44
2019-05-01T08:44:43.468Z,101175.61
2019-05-01T08:47:25.953Z,101181.27
2019-05-01T08:49:54.470Z,101177.38
2019-05-01T08:52:23.027Z,101179.56
2019-05-01T08:54:51.546Z,101176.95
2019-05-01T08:57:20.025Z,101169.10
2019-05-01T08:59:48.542Z,101174.34
2019-05-01T09:02:17.257Z,101176.97
2019-05-01T09:04:45.814Z,101178.73
2019-05-01T09:07:14.666Z,101174.81
2019-05-01T09:09:45.649Z,101173.09
2019-05-01T09:12:14.847Z,101176.15
2019-05-01T09:14:43.333Z,101175.25
2019-05-01T09:17:11.850Z,101172.64
2019-05-01T09:19:40.328Z,101170.91
2019-05-01T09:22:08.817Z,101167.39
2019-05-01T09:24:37.418Z,101166.98
2019-05-01T09:27:13.173Z,101159.11
2019-05-01T09:29:46.911Z,101160.45
2019-05-01T09:32:18.657Z,101160.42
2019-05-01T09:34:46.415Z,101155.19
2019-05-01T09:37:14.944Z,101158.25
2019-05-01T09:39:43.430Z,101156.06
2019-05-01T09:42:12.058Z,101147.77
2019-05-01T09:44:40.573Z,101142.08
2019-05-01T09:47:09.050Z,101146.46
2019-05-01T09:49:37.599Z,101146.89
2019-05-01T09:52:07.836Z,101139.47
2019-05-01T09:54:37.967Z,101138.58
2019-05-01T09:57:19.027Z,101142.06
2019-05-01T09:59:47.513Z,101138.98
2019-05-01T10:02:16.063Z,101140.28
2019-05-01T10:04:44.598Z,101146.38
2019-05-01T10:07:13.181Z,101143.74
2019-05-01T10:09:41.668Z,101132.37
2019-05-01T10:12:11.633Z,101133.25
2019-05-01T10:14:40.410Z,101129.30
2019-05-01T10:17:08.894Z,101131.91
2019-05-01T10:19:37.425Z,101124.45
2019-05-01T10:22:06.002Z,101128.37
2019-05-01T10:24:37.776Z,101122.28
2019-05-01T10:27:06.378Z,101114.81
2019-05-01T10:29:57.007Z,101119.13
2019-05-01T10:32:30.628Z,101119.55
2019-05-01T10:35:14.243Z,101109.47
2019-05-01T10:37:43.512Z,101120.34
2019-05-01T10:40:12.165Z,101106.77
2019-05-01T10:42:41.097Z,101105.93
2019-05-01T10:45:09.881Z,101105.45
2019-05-01T10:47:38.353Z,101083.72
2019-05-01T10:50:06.918Z,101098.88
2019-05-01T10:52:35.491Z,101090.95
2019-05-01T10:55:05.398Z,101091.34
2019-05-01T10:57:35.199Z,101091.28
2019-05-01T11:00:09.332Z,101082.90
2019-05-01T11:02:37.878Z,101079.31
2019-05-01T11:05:06.612Z,101083.20
2019-05-01T11:07:35.368Z,101078.48
2019-05-01T11:10:06.861Z,101080.27
2019-05-01T11:12:36.057Z,101065.81
2019-05-01T11:15:07.303Z,101066.74
2019-05-01T11:17:35.797Z,101066.81
2019-05-01T11:20:06.597Z,101038.63
2019-05-01T11:22:35.128Z,101068.30
2019-05-01T11:25:05.132Z,101063.56
2019-05-01T11:27:33.621Z,101063.56
2019-05-01T11:30:02.184Z,101061.27
2019-05-01T11:32:32.367Z,101055.11
2019-05-01T11:35:18.842Z,101058.98
2019-05-01T11:37:49.223Z,101076.41
2019-05-01T11:40:31.972Z,101070.71
2019-05-01T11:43:02.697Z,101066.30
2019-05-01T11:45:30.787Z,101071.16
2019-05-01T11:47:59.334Z,101077.78
2019-05-01T11:50:27.829Z,101069.08
2019-05-01T11:52:56.314Z,101067.80
2019-05-01T11:55:24.867Z,101066.52
2019-05-01T11:57:53.431Z,101075.30
2019-05-01T12:00:22.501Z,101077.12
2019-05-01T12:02:51.062Z,101076.30
2019-05-01T12:05:19.617Z,101071.97
2019-05-01T12:07:48.114Z,101070.66
2019-05-01T12:10:17.202Z,101064.98
2019-05-01T12:12:45.674Z,101059.30
2019-05-01T12:15:14.391Z,101061.89
2019-05-01T12:17:44.646Z,101052.69
2019-05-01T12:20:13.849Z,101054.42
2019-05-01T12:22:42.412Z,101048.67
2019-05-01T12:25:12.558Z,101045.16
2019-05-01T12:27:41.107Z,101035.98
2019-05-01T12:30:10.897Z,101035.56
2019-05-01T12:32:39.425Z,101034.25
2019-05-01T12:35:08.076Z,101034.25
2019-05-01T12:37:38.262Z,101028.56
2019-05-01T12:40:09.048Z,101022.84
2019-05-01T12:42:37.601Z,101028.05
2019-05-01T12:45:10.766Z,101016.25
2019-05-01T12:47:41.099Z,101025.44
2019-05-01T12:50:10.990Z,101035.02
2019-05-01T12:52:47.007Z,101027.61
2019-05-01T12:55:29.142Z,101025.40
2019-05-01T12:57:57.689Z,101015.73
2019-05-01T13:00:41.258Z,101017.53
2019-05-01T13:03:10.054Z,101019.26
2019-05-01T13:05:38.722Z,101015.29
2019-05-01T13:08:07.196Z,101017.39
2019-05-01T13:10:35.728Z,100996.00
2019-05-01T13:13:04.344Z,100997.72
2019-05-01T13:15:32.993Z,100992.06
2019-05-01T13:18:01.498Z,100991.23
2019-05-01T13:20:29.997Z,100983.82
2019-05-01T13:22:58.482Z,100983.38
2019-05-01T13:25:27.009Z,100979.89
2019-05-01T13:27:57.130Z,100981.69
2019-05-01T13:30:27.259Z,100980.00
2019-05-01T13:32:56.644Z,100974.34
2019-05-01T13:35:25.145Z,100970.41
2019-05-01T13:37:53.617Z,100973.03
2019-05-01T13:40:22.282Z,100973.44
2019-05-01T13:42:50.834Z,100972.13
2019-05-01T13:45:19.631Z,100963.78
2019-05-01T13:47:48.230Z,100955.91
2019-05-01T13:50:16.777Z,100957.59
2019-05-01T13:52:45.343Z,100951.45
2019-05-01T13:55:14.020Z,100960.59
2019-05-01T13:57:42.558Z,100956.24
2019-05-01T14:00:11.281Z,100954.94
2019-05-01T14:02:39.789Z,100951.50
2019-05-01T14:05:08.329Z,100956.33
2019-05-01T14:07:36.867Z,100946.70
2019-05-01T14:10:06.696Z,100947.14
2019-05-01T14:12:35.186Z,100947.59
2019-05-01T14:15:03.744Z,100948.05
2019-05-01T14:17:32.270Z,100942.39
2019-05-01T14:20:14.431Z,100945.50
2019-05-01T14:22:47.603Z,100939.36
2019-05-01T14:25:16.087Z,100941.48
2019-05-01T14:27:44.571Z,100938.72
2019-05-01T14:30:13.527Z,100927.64
2019-05-01T14:32:42.021Z,100930.54
2019-05-01T14:35:10.842Z,100928.72
2019-05-01T14:37:39.382Z,100922.61
2019-05-01T14:40:09.106Z,100913.88
2019-05-01T14:42:37.635Z,100919.19
2019-05-01T14:45:09.749Z,100912.67
2019-05-01T14:47:38.303Z,100915.80
2019-05-01T14:50:08.023Z,100907.64
2019-05-01T14:52:36.555Z,100903.30
2019-05-01T14:55:07.705Z,100907.23
2019-05-01T14:57:36.187Z,100899.78
2019-05-01T15:00:06.743Z,100903.22
2019-05-01T15:02:35.211Z,100902.27
2019-05-01T15:05:05.233Z,100909.23
2019-05-01T15:07:43.242Z,100900.91
2019-05-01T15:10:05.566Z,100892.59
2019-05-01T15:12:34.055Z,100895.66
2019-05-01T15:15:07.259Z,100896.97
2019-05-01T15:17:46.655Z,100899.19
2019-05-01T15:20:15.304Z,100888.25
2019-05-01T15:22:43.782Z,100884.76
2019-05-01T15:25:12.250Z,100881.73
2019-05-01T15:27:40.780Z,100881.78
2019-05-01T15:30:09.495Z,100879.25
2019-05-01T15:32:37.969Z,100879.34
2019-05-01T15:35:06.671Z,100875.03
2019-05-01T15:37:35.446Z,100875.48
2019-05-01T15:40:07.789Z,100871.06
2019-05-01T15:42:38.826Z,100874.13
2019-05-01T15:45:07.629Z,100868.89
2019-05-01T15:47:36.412Z,100865.45
2019-05-01T15:50:07.375Z,100859.35
2019-05-01T15:52:36.019Z,100851.53
2019-05-01T15:55:07.044Z,100861.65
2019-05-01T15:57:35.545Z,100858.25
2019-05-01T16:00:07.100Z,100853.45
2019-05-01T16:02:35.645Z,100858.70
2019-05-01T16:05:05.703Z,100850.47
2019-05-01T16:07:34.179Z,100850.95
2019-05-01T16:10:05.376Z,100850.99
2019-05-01T16:12:38.471Z,100848.81
2019-05-01T16:15:10.138Z,100847.47
2019-05-01T16:17:38.615Z,100840.47
2019-05-01T16:20:08.004Z,100837.02
2019-05-01T16:22:36.479Z,100832.69
2019-05-01T16:25:06.672Z,100833.17
2019-05-01T16:27:35.213Z,100832.77
2019-05-01T16:30:05.496Z,100831.91
2019-05-01T16:32:33.976Z,100827.11
2019-05-01T16:35:02.484Z,100825.39
2019-05-01T16:37:31.033Z,100820.11
2019-05-01T16:40:06.888Z,100816.03
2019-05-01T16:42:35.764Z,100822.45
2019-05-01T16:45:05.291Z,100815.86
2019-05-01T16:47:33.779Z,100816.67
2019-05-01T16:50:02.799Z,100814.95
2019-05-01T16:52:33.180Z,100825.07
2019-05-01T16:55:01.677Z,100822.09
2019-05-01T16:57:30.218Z,100825.27
2019-05-01T16:59:58.698Z,100823.19
2019-05-01T17:02:37.518Z,100825.46
2019-05-01T17:05:25.510Z,100825.59
2019-05-01T17:08:10.701Z,100823.48
2019-05-01T17:10:40.843Z,100823.63
2019-05-01T17:13:09.571Z,100829.39
2019-05-01T17:15:39.732Z,100832.92
2019-05-01T17:18:08.293Z,100823.75
2019-05-01T17:20:36.771Z,100830.77
2019-05-01T17:23:05.724Z,100833.83
2019-05-01T17:25:34.345Z,100827.36
2019-05-01T17:28:08.097Z,100836.09
2019-05-01T17:30:41.766Z,100834.42
2019-05-01T17:33:10.431Z,100831.41
2019-05-01T17:35:41.840Z,100833.17
2019-05-01T17:38:09.329Z,100829.30
2019-05-01T17:40:37.809Z,100837.16
2019-05-01T17:43:08.261Z,100834.58
2019-05-01T17:45:36.852Z,100833.27
2019-05-01T17:48:05.390Z,100827.63
2019-05-01T17:50:33.873Z,100831.55
2019-05-01T17:53:02.393Z,100825.05
2019-05-01T17:55:30.920Z,100835.06
2019-05-01T17:57:59.398Z,100835.92
2019-05-01T18:00:38.400Z,100835.92
2019-05-01T18:03:26.903Z,100833.70
2019-05-01T18:06:01.500Z,100830.67
2019-05-01T18:08:27.288Z,100840.67
2019-05-01T18:10:55.784Z,100847.17
2019-05-01T18:13:24.293Z,100846.30
2019-05-01T18:15:52.776Z,100850.63
2019-05-01T18:18:21.254Z,100846.69
2019-05-01T18:20:49.844Z,100844.48
2019-05-01T18:23:20.071Z,100844.45
2019-05-01T18:25:50.202Z,100844.83
2019-05-01T18:28:20.365Z,100843.94
2019-05-01T18:30:51.770Z,100848.66
2019-05-01T18:33:22.040Z,100840.80
2019-05-01T18:35:50.514Z,100841.22
2019-05-01T18:38:26.619Z,100842.00
2019-05-01T18:40:56.896Z,100840.23
2019-05-01T18:43:27.093Z,100840.17
2019-05-01T18:45:57.002Z,100846.22
2019-05-01T18:48:25.709Z,100846.19
2019-05-01T18:50:56.298Z,100848.72
2019-05-01T18:53:24.915Z,100840.85
2019-05-01T18:55:53.464Z,100844.30
2019-05-01T18:58:21.952Z,100840.78
2019-05-01T19:00:50.441Z,100842.02
2019-05-01T19:03:18.954Z,100844.58
2019-05-01T19:05:48.275Z,100847.17
2019-05-01T19:08:16.913Z,100838.86
2019-05-01T19:10:45.523Z,100843.61
2019-05-01T19:13:14.664Z,100842.23
2019-05-01T19:15:43.266Z,100837.86
2019-05-01T19:18:11.867Z,100838.67
2019-05-01T19:20:40.358Z,100838.19
2019-05-01T19:23:09.017Z,100832.94
2019-05-01T19:25:37.634Z,100840.29
2019-05-01T19:28:07.294Z,100835.50
2019-05-01T19:30:35.930Z,100834.60
2019-05-01T19:33:04.515Z,100833.27
2019-05-01T19:35:34.372Z,100826.77
2019-05-01T19:38:02.937Z,100820.28
2019-05-01T19:40:32.771Z,100828.52
2019-05-01T19:43:01.503Z,100823.72
2019-05-01T19:45:30.084Z,100824.13
2019-05-01T19:47:58.635Z,100827.13
2019-05-01T19:50:27.148Z,100824.50
2019-05-01T19:52:56.077Z,100832.30
2019-05-01T19:55:24.671Z,100824.45
2019-05-01T19:57:53.152Z,100816.59
2019-05-01T20:00:40.471Z,100819.17
2019-05-01T20:03:08.956Z,100818.27
2019-05-01T20:05:37.437Z,100810.02
2019-05-01T20:08:06.043Z,100816.05
2019-05-01T20:10:34.541Z,100809.55
2019-05-01T20:13:06.969Z,100808.69
2019-05-01T20:15:33.240Z,100813.00
2019-05-01T20:18:01.778Z,100809.50
2019-05-01T20:20:30.335Z,100807.34
2019-05-01T20:22:58.967Z,100810.34
2019-05-01T20:25:27.454Z,100813.37
2019-05-01T20:27:57.421Z,100818.11
2019-05-01T20:30:26.113Z,100816.78
2019-05-01T20:32:58.150Z,100807.66
2019-05-01T20:35:28.389Z,100813.28
2019-05-01T20:37:55.058Z,100801.59
2019-05-01T20:40:23.687Z,100802.89
2019-05-01T20:42:52.171Z,100803.78
2019-05-01T20:45:22.545Z,100803.81
2019-05-01T20:47:54.227Z,100803.37
2019-05-01T20:50:21.407Z,100797.72
2019-05-01T20:52:49.928Z,100799.02
2019-05-01T20:55:18.841Z,100796.39
2019-05-01T20:57:50.479Z,100798.97
2019-05-01T21:00:21.820Z,100800.23
2019-05-01T21:02:50.304Z,100789.35
2019-05-01T21:05:26.054Z,100784.16
2019-05-01T21:08:12.429Z,100784.53
2019-05-01T21:10:51.486Z,100783.64
2019-05-01T21:13:23.312Z,100778.84
2019-05-01T21:15:50.248Z,100774.48
2019-05-01T21:18:20.837Z,100778.34
2019-05-01T21:20:48.964Z,100772.27
2019-05-01T21:23:17.448Z,100768.34
2019-05-01T21:25:46.100Z,100768.30
2019-05-01T21:28:14.612Z,100758.31
2019-05-01T21:30:47.174Z,100754.86
2019-05-01T21:33:13.834Z,100753.93
2019-05-01T21:35:44.470Z,100750.87
2019-05-01T21:38:12.838Z,100753.47
2019-05-01T21:40:43.743Z,100744.38
2019-05-01T21:43:13.463Z,100741.32
2019-05-01T21:45:43.349Z,100734.80
2019-05-01T21:48:13.418Z,100732.60
2019-05-01T21:50:43.911Z,100730.44
2019-05-01T21:53:12.970Z,100732.11
2019-05-01T21:55:41.830Z,100718.66
2019-05-01T21:58:10.346Z,100719.97
2019-05-01T22:00:40.836Z,100712.98
2019-05-01T22:03:09.587Z,100707.32
2019-05-01T22:05:39.555Z,100702.13
2019-05-01T22:08:08.657Z,100697.38
2019-05-01T22:10:37.128Z,100704.73
2019-05-01T22:13:06.107Z,100695.24
2019-05-01T22:15:36.228Z,100687.89
2019-05-01T22:18:12.493Z,100687.02
2019-05-01T22:20:48.369Z,100684.42
2019-05-01T22:23:22.098Z,100680.97
2019-05-01T22:25:50.589Z,100682.73
2019-05-01T22:28:23.916Z,100673.18
2019-05-01T22:30:59.757Z,100674.91
2019-05-01T22:33:28.623Z,100678.38
2019-05-01T22:35:57.104Z,100679.20
2019-05-01T22:38:25.639Z,100676.58
2019-05-01T22:41:06.111Z,100675.72
2019-05-01T22:43:28.586Z,100665.30
2019-05-01T22:46:01.567Z,100672.59
2019-05-01T22:48:27.322Z,100664.78
2019-05-01T22:50:57.459Z,100663.02
2019-05-01T22:53:25.986Z,100652.67
2019-05-01T22:55:57.222Z,100653.10
2019-05-01T22:58:25.075Z,100647.51
2019-05-01T23:00:55.258Z,100650.94
2019-05-01T23:03:25.444Z,100646.16
2019-05-01T23:05:53.938Z,100649.18
2019-05-01T23:08:22.438Z,100642.23
2019-05-01T23:10:51.584Z,100639.60
2019-05-01T23:13:20.144Z,100635.28
2019-05-01T23:15:51.519Z,100633.55
2019-05-01T23:18:19.022Z,100627.06
2019-05-01T23:20:47.492Z,100630.89
2019-05-01T23:23:16.036Z,100624.38
2019-05-01T23:25:44.520Z,100618.72
2019-05-01T23:28:13.004Z,100616.06
2019-05-01T23:30:41.671Z,100606.49
2019-05-01T23:33:10.154Z,100611.22
2019-05-01T23:35:38.637Z,100609.02
2019-05-01T23:38:07.155Z,100605.10
2019-05-01T23:40:35.705Z,100603.80
2019-05-01T23:43:04.330Z,100599.48
2019-05-01T23:45:32.865Z,100599.05
2019-05-01T23:48:01.388Z,100585.63
2019-05-01T23:50:29.837Z,100587.75
2019-05-01T23:52:58.351Z,100593.37
2019-05-01T23:55:26.824Z,100591.61
2019-05-01T23:57:56.335Z,100590.70
